createdAt,value
2022-10-11T00:01:59.126Z,100957.06
2022-10-11T00:05:22.289Z,100946.66
2022-10-11T00:08:44.956Z,100940.63
2022-10-11T00:12:09.674Z,100932.06
2022-10-11T00:15:33.473Z,100924.34
2022-10-11T00:18:56.386Z,100916.66
2022-10-11T00:22:19.480Z,100904.56
2022-10-11T00:25:42.808Z,100908.84
2022-10-11T01:12:36.764Z,100831.22
2022-10-11T01:16:07.776Z,100817.41
2022-10-11T01:19:50.023Z,100806.34
2022-10-11T01:23:39.847Z,100817.34
2022-10-11T01:27:36.705Z,100804.41
2022-10-11T01:31:04.931Z,100800.09
2022-10-11T01:34:32.651Z,100769.28
2022-10-11T01:38:01.171Z,100778.59
2022-10-11T01:41:26.768Z,100776.09
2022-10-11T01:44:51.925Z,100754.88
2022-10-11T01:48:15.656Z,100756.41
2022-10-11T01:51:44.056Z,100753.03
2022-10-11T01:55:23.573Z,100745.31
2022-10-11T01:58:56.392Z,100735.84
2022-10-11T02:02:32.185Z,100735.88
2022-10-11T02:06:01.587Z,100732.59
2022-10-11T02:09:30.845Z,100727.41
2022-10-11T02:12:59.362Z,100683.06
2022-10-11T02:16:26.825Z,100713.69
2022-10-11T02:19:51.804Z,100710.22
2022-10-11T02:23:18.272Z,100703.28
2022-10-11T02:26:44.262Z,100697.47
2022-10-11T02:30:09.385Z,100700.84
2022-10-11T02:33:37.292Z,100690.47
2022-10-11T02:37:03.382Z,100689.59
2022-10-11T02:40:30.897Z,100678.41
2022-10-11T02:43:59.570Z,100670.53
2022-10-11T02:47:21.085Z,100673.97
2022-10-11T02:50:44.524Z,100668.78
2022-10-11T02:54:07.058Z,100665.31
2022-10-11T02:57:30.472Z,100660.06
2022-10-11T03:00:52.345Z,100656.59
2022-10-11T03:04:14.552Z,100659.16
2022-10-11T03:07:36.458Z,100658.25
2022-10-11T03:10:58.499Z,100657.41
2022-10-11T03:14:21.936Z,100638.41
2022-10-11T03:17:44.055Z,100610.28
2022-10-11T03:21:05.932Z,100629.75
2022-10-11T03:24:27.751Z,100627.19
2022-10-11T03:27:49.660Z,100631.50
2022-10-11T03:31:13.006Z,100628.09
2022-10-11T03:34:34.787Z,100604.06
2022-10-11T03:37:56.503Z,100620.31
2022-10-11T03:41:18.232Z,100609.09
2022-10-11T03:44:41.729Z,100591.88
2022-10-11T03:48:05.116Z,100591.06
2022-10-11T03:51:26.779Z,100588.47
2022-10-11T03:54:48.602Z,100591.03
2022-10-11T03:58:10.681Z,100591.06
2022-10-11T04:01:37.646Z,100587.66
2022-10-11T04:05:01.958Z,100587.72
2022-10-11T04:08:23.720Z,100588.66
2022-10-11T04:11:45.639Z,100541.56
2022-10-11T04:15:08.579Z,100574.91
2022-10-11T04:18:31.079Z,100569.81
2022-10-11T04:21:54.528Z,100572.34
2022-10-11T04:25:16.867Z,100558.56
2022-10-11T04:28:38.799Z,100556.84
2022-10-11T04:32:00.812Z,100562.88
2022-10-11T04:35:22.810Z,100541.28
2022-10-11T04:38:46.106Z,100542.22
2022-10-11T04:42:07.654Z,100527.66
2022-10-11T04:45:29.482Z,100518.13
2022-10-11T04:48:51.492Z,100526.88
2022-10-11T04:52:13.396Z,100525.16
2022-10-11T04:55:36.720Z,100520.88
2022-10-11T04:58:58.544Z,100516.59
2022-10-11T05:02:20.405Z,100479.66
2022-10-11T05:05:42.192Z,100490.59
2022-10-11T05:09:03.948Z,100452.28
2022-10-11T05:12:27.170Z,100484.41
2022-10-11T05:15:49.285Z,100494.75
2022-10-11T05:19:11.176Z,100493.84
2022-10-11T05:22:33.013Z,100486.91
2022-10-11T05:25:55.083Z,100485.06
2022-10-11T05:29:18.391Z,100484.19
2022-10-11T05:32:40.098Z,100494.38
2022-10-11T05:36:02.380Z,100447.34
2022-10-11T05:39:24.524Z,100484.63
2022-10-11T05:42:46.518Z,100481.84
2022-10-11T05:46:10.664Z,100457.63
2022-10-11T05:49:32.833Z,100456.25
2022-10-11T05:52:54.627Z,100414.69
2022-10-11T05:56:22.572Z,100415.13
2022-10-11T05:59:44.589Z,100438.56
2022-10-11T06:03:09.911Z,100421.84
2022-10-11T06:06:32.041Z,100418.97
2022-10-11T06:09:54.329Z,100398.84
2022-10-11T06:13:16.232Z,100439.00
2022-10-11T06:16:38.060Z,100413.84
2022-10-11T06:20:01.373Z,100416.38
2022-10-11T06:23:23.092Z,100376.91
2022-10-11T06:26:44.905Z,100396.59
2022-10-11T06:30:07.594Z,100399.00
2022-10-11T06:33:29.494Z,100388.50
2022-10-11T06:37:14.178Z,100395.97
2022-10-11T06:40:35.876Z,100406.75
2022-10-11T06:43:58.157Z,100397.88
2022-10-11T06:47:20.215Z,100405.69
2022-10-11T06:50:59.009Z,100402.16
2022-10-11T06:54:23.507Z,100425.00
2022-10-11T06:57:45.617Z,100424.72
2022-10-11T07:01:09.689Z,100431.47
2022-10-11T07:04:33.940Z,100444.34
2022-10-11T07:07:55.641Z,100434.03
2022-10-11T07:11:21.098Z,100433.34
2022-10-11T07:14:43.147Z,100425.63
2022-10-11T07:18:05.226Z,100436.13
2022-10-11T07:21:27.039Z,100437.81
2022-10-11T07:24:49.261Z,100440.41
2022-10-11T07:28:12.817Z,100435.31
2022-10-11T07:31:34.787Z,100419.00
2022-10-11T07:34:56.870Z,100407.13
2022-10-11T07:38:18.993Z,100407.38
2022-10-11T07:41:46.387Z,100418.50
2022-10-11T07:45:10.454Z,100413.41
2022-10-11T07:48:33.147Z,100426.41
2022-10-11T07:51:55.101Z,100420.41
2022-10-11T07:55:17.274Z,100396.47
2022-10-11T07:58:38.919Z,100408.44
2022-10-11T08:02:02.297Z,100407.50
2022-10-11T08:05:24.192Z,100402.50
2022-10-11T08:08:46.019Z,100406.63
2022-10-11T08:12:08.085Z,100405.78
2022-10-11T08:15:31.096Z,100392.94
2022-10-11T08:18:56.958Z,100397.88
2022-10-11T08:22:19.219Z,100347.69
2022-10-11T08:25:42.583Z,100392.56
2022-10-11T08:29:05.343Z,100386.44
2022-10-11T08:32:27.145Z,100400.25
2022-10-11T08:35:52.029Z,100399.34
2022-10-11T08:39:13.744Z,100397.66
2022-10-11T08:42:40.087Z,100390.56
2022-10-11T08:46:05.424Z,100383.84
2022-10-11T08:49:31.789Z,100387.13
2022-10-11T08:53:00.128Z,100377.56
2022-10-11T08:56:25.128Z,100375.81
2022-10-11T08:59:51.230Z,100374.03
2022-10-11T09:03:24.871Z,100386.84
2022-10-11T09:07:00.235Z,100366.81
2022-10-11T09:10:55.716Z,100376.78
2022-10-11T09:14:39.470Z,100380.00
2022-10-11T09:18:27.984Z,100386.75
2022-10-11T09:21:56.281Z,100369.53
2022-10-11T09:25:26.651Z,100383.75
2022-10-11T09:29:01.555Z,100385.28
2022-10-11T09:32:24.832Z,100388.53
2022-10-11T09:35:49.713Z,100394.66
2022-10-11T09:39:25.020Z,100385.91
2022-10-11T09:42:46.993Z,100383.16
2022-10-11T09:46:22.219Z,100387.28
2022-10-11T09:49:48.973Z,100389.91
2022-10-11T09:53:11.171Z,100391.47
2022-10-11T09:56:36.146Z,100394.06
2022-10-11T10:00:03.745Z,100398.19
2022-10-11T10:03:30.814Z,100403.41
2022-10-11T10:07:13.089Z,100401.63
2022-10-11T10:10:38.742Z,100406.84
2022-10-11T10:14:00.732Z,100410.50
2022-10-11T10:17:22.913Z,100380.69
2022-10-11T10:20:53.497Z,100408.59
2022-10-11T10:24:21.336Z,100407.09
2022-10-11T10:27:58.548Z,100412.00
2022-10-11T10:31:23.921Z,100406.09
2022-10-11T10:34:58.016Z,100417.03
2022-10-11T10:38:27.917Z,100419.69
2022-10-11T10:41:49.930Z,100413.44
2022-10-11T10:45:21.185Z,100423.72
2022-10-11T10:52:43.812Z,100425.19
2022-10-11T10:56:12.298Z,100427.75
2022-10-11T11:00:12.635Z,100418.28
2022-10-11T11:03:44.871Z,100428.19
2022-10-11T11:07:20.804Z,100435.63
2022-10-11T11:10:52.796Z,100432.53
2022-10-11T11:14:29.128Z,100432.53
2022-10-11T11:18:05.469Z,100423.94
2022-10-11T11:21:41.382Z,100427.44
2022-10-11T11:25:12.930Z,100426.94
2022-10-11T11:28:51.363Z,100422.28
2022-10-11T11:32:22.144Z,100419.75
2022-10-11T11:35:48.101Z,100432.53
2022-10-11T11:39:18.165Z,100440.16
2022-10-11T11:42:45.143Z,100440.75
2022-10-11T11:46:14.060Z,100434.88
2022-10-11T11:49:39.341Z,100430.16
2022-10-11T11:53:05.242Z,100440.75
2022-10-11T11:56:32.384Z,100441.16
2022-10-11T11:59:59.240Z,100441.44
2022-10-11T12:03:25.721Z,100432.78
2022-10-11T12:07:15.938Z,100433.81
2022-10-11T12:10:41.274Z,100438.91
2022-10-11T12:14:15.699Z,100441.53
2022-10-11T12:18:03.628Z,100442.16
2022-10-11T12:21:33.645Z,100438.69
2022-10-11T12:24:59.291Z,100448.31
2022-10-11T12:28:49.794Z,100421.69
2022-10-11T12:32:48.323Z,100454.31
2022-10-11T12:36:33.002Z,100460.19
2022-10-11T12:39:57.409Z,100465.44
2022-10-11T12:43:33.071Z,100464.34
2022-10-11T12:47:21.504Z,100463.19
2022-10-11T12:50:52.769Z,100455.63
2022-10-11T12:54:37.864Z,100464.47
2022-10-11T12:58:28.988Z,100463.88
2022-10-11T13:01:53.995Z,100460.13
2022-10-11T13:05:24.782Z,100461.75
2022-10-11T13:08:51.185Z,100468.88
2022-10-11T13:12:17.959Z,100468.06
2022-10-11T13:15:44.806Z,100460.69
2022-10-11T13:19:07.306Z,100471.56
2022-10-11T13:22:29.706Z,100480.97
2022-10-11T13:25:52.913Z,100476.09
2022-10-11T13:29:18.464Z,100478.06
2022-10-11T13:32:43.814Z,100483.63
2022-10-11T13:36:10.071Z,100481.63
2022-10-11T13:39:35.700Z,100481.53
2022-10-11T13:42:58.670Z,100483.06
2022-10-11T13:46:23.533Z,100498.28
2022-10-11T13:49:53.498Z,100498.88
2022-10-11T13:53:25.355Z,100499.19
2022-10-11T13:56:51.482Z,100514.44
2022-10-11T14:00:33.522Z,100512.06
2022-10-11T14:03:59.821Z,100521.84
2022-10-11T14:07:27.863Z,100527.34
2022-10-11T14:10:55.688Z,100523.28
2022-10-11T14:14:41.358Z,100527.84
2022-10-11T14:18:24.439Z,100520.63
2022-10-11T14:21:51.625Z,100532.38
2022-10-11T14:25:15.176Z,100528.28
2022-10-11T14:28:37.310Z,100533.75
2022-10-11T14:32:04.366Z,100534.16
2022-10-11T14:35:29.968Z,100543.19
2022-10-11T14:38:52.634Z,100547.78
2022-10-11T14:42:16.888Z,100550.19
2022-10-11T14:45:38.894Z,100554.09
2022-10-11T14:49:00.746Z,100556.25
2022-10-11T14:52:22.688Z,100546.28
2022-10-11T14:55:45.044Z,100553.81
2022-10-11T14:59:09.485Z,100555.09
2022-10-11T15:02:31.579Z,100564.09
2022-10-11T15:05:53.411Z,100555.84
2022-10-11T15:09:16.448Z,100561.50
2022-10-11T15:12:38.568Z,100550.91
2022-10-11T15:16:02.423Z,100569.34
2022-10-11T15:19:26.743Z,100576.63
2022-10-11T15:22:49.067Z,100581.41
2022-10-11T15:26:14.566Z,100589.66
2022-10-11T15:29:36.746Z,100590.91
2022-10-11T15:33:00.196Z,100585.25
2022-10-11T15:36:23.789Z,100592.53
2022-10-11T15:39:45.909Z,100593.84
2022-10-11T15:43:07.796Z,100606.28
2022-10-11T15:46:29.618Z,100608.31
2022-10-11T15:49:52.855Z,100614.72
2022-10-11T15:53:17.115Z,100610.69
2022-10-11T15:56:39.013Z,100614.25
2022-10-11T16:00:00.695Z,100613.53
2022-10-11T16:03:23.818Z,100596.63
2022-10-11T16:06:47.920Z,100615.28
2022-10-11T16:10:11.056Z,100618.75
2022-10-11T16:13:33.934Z,100620.50
2022-10-11T16:16:56.141Z,100620.59
2022-10-11T16:20:22.405Z,100618.94
2022-10-11T16:23:45.907Z,100626.69
2022-10-11T16:27:08.334Z,100619.88
2022-10-11T16:30:30.371Z,100629.50
2022-10-11T16:33:53.077Z,100634.53
2022-10-11T16:37:15.048Z,100632.72
2022-10-11T16:40:38.652Z,100623.31
2022-10-11T16:44:00.520Z,100635.41
2022-10-11T16:47:22.442Z,100638.00
2022-10-11T16:50:44.348Z,100637.13
2022-10-11T16:54:06.656Z,100632.00
2022-10-11T16:57:29.961Z,100632.72
2022-10-11T17:00:51.820Z,100603.66
2022-10-11T17:04:14.647Z,100630.34
2022-10-11T17:07:36.492Z,100632.38
2022-10-11T17:10:59.179Z,100634.41
2022-10-11T17:14:23.016Z,100607.72
2022-10-11T17:17:45.209Z,100645.31
2022-10-11T17:21:09.600Z,100640.53
2022-10-11T17:24:31.673Z,100649.22
2022-10-11T17:27:56.272Z,100653.59
2022-10-11T17:31:19.818Z,100652.00
2022-10-11T17:34:41.820Z,100649.38
2022-10-11T17:38:06.114Z,100654.66
2022-10-11T17:41:32.006Z,100657.28
2022-10-11T17:44:54.462Z,100661.56
2022-10-11T17:48:18.039Z,100660.72
2022-10-11T17:51:41.607Z,100657.16
2022-10-11T17:55:03.795Z,100671.97
2022-10-11T17:58:26.985Z,100680.56
2022-10-11T18:01:49.522Z,100676.19
2022-10-11T18:05:14.758Z,100674.50
2022-10-11T18:08:40.551Z,100678.03
2022-10-11T18:12:02.879Z,100677.28
2022-10-11T18:15:24.782Z,100672.31
2022-10-11T18:18:46.862Z,100671.41
2022-10-11T18:22:10.223Z,100668.00
2022-10-11T18:25:34.795Z,100667.09
2022-10-11T18:28:57.306Z,100653.66
2022-10-11T18:32:20.127Z,100673.50
2022-10-11T18:35:42.725Z,100674.72
2022-10-11T18:39:08.566Z,100676.63
2022-10-11T18:42:30.481Z,100680.41
2022-10-11T18:45:52.374Z,100685.06
2022-10-11T18:49:14.720Z,100676.72
2022-10-11T18:52:39.205Z,100677.84
2022-10-11T18:56:09.888Z,100675.41
2022-10-11T18:59:33.125Z,100672.28
2022-10-11T19:02:55.383Z,100683.72
2022-10-11T19:06:19.174Z,100686.66
2022-10-11T19:09:41.278Z,100685.94
2022-10-11T19:13:04.814Z,100681.00
2022-10-11T19:16:29.605Z,100684.66
2022-10-11T19:19:51.787Z,100688.34
2022-10-11T19:23:14.189Z,100683.25
2022-10-11T19:26:38.042Z,100686.97
2022-10-11T19:30:01.552Z,100699.25
2022-10-11T19:33:23.228Z,100692.47
2022-10-11T19:36:45.336Z,100687.47
2022-10-11T19:40:09.209Z,100697.13
2022-10-11T19:43:31.750Z,100695.72
2022-10-11T19:46:55.416Z,100700.91
2022-10-11T19:50:17.641Z,100703.63
2022-10-11T19:53:39.621Z,100700.25
2022-10-11T19:57:01.895Z,100697.72
2022-10-11T20:00:24.096Z,100703.81
2022-10-11T20:03:49.433Z,100701.22
2022-10-11T20:07:11.774Z,100691.00
2022-10-11T20:10:34.883Z,100681.63
2022-10-11T20:13:57.657Z,100700.53
2022-10-11T20:17:19.444Z,100701.41
2022-10-11T20:20:52.334Z,100714.47
2022-10-11T20:24:14.525Z,100711.91
2022-10-11T20:27:36.819Z,100716.34
2022-10-11T20:30:58.849Z,100713.81
2022-10-11T20:34:20.721Z,100723.41
2022-10-11T20:37:43.988Z,100719.22
2022-10-11T20:41:07.718Z,100710.66
2022-10-11T20:44:29.796Z,100720.31
2022-10-11T20:47:51.616Z,100727.38
2022-10-11T20:51:13.431Z,100727.44
2022-10-11T20:54:36.673Z,100728.41
2022-10-11T20:57:58.391Z,100726.75
2022-10-11T21:01:22.431Z,100725.13
2022-10-11T21:04:44.283Z,100732.03
2022-10-11T21:08:06.927Z,100734.69
2022-10-11T21:11:32.180Z,100742.53
2022-10-11T21:14:54.046Z,100733.19
2022-10-11T21:18:16.032Z,100738.28
2022-10-11T21:21:38.054Z,100712.06
2022-10-11T21:25:00.051Z,100739.38
2022-10-11T21:28:23.520Z,100751.53
2022-10-11T21:31:45.512Z,100755.91
2022-10-11T21:35:07.689Z,100760.34
2022-10-11T21:38:30.058Z,100757.03
2022-10-11T21:41:51.963Z,100753.63
2022-10-11T21:45:15.314Z,100758.84
2022-10-11T21:48:37.613Z,100760.69
2022-10-11T21:51:59.479Z,100772.94
2022-10-11T21:55:21.446Z,100766.13
2022-10-11T21:58:43.382Z,100762.69
2022-10-11T22:02:06.698Z,100757.56
2022-10-11T22:05:28.720Z,100764.53
2022-10-11T22:08:51.066Z,100775.94
2022-10-11T22:12:12.808Z,100777.81
2022-10-11T22:15:35.773Z,100783.13
2022-10-11T22:19:00.148Z,100777.19
2022-10-11T22:22:22.094Z,100786.81
2022-10-11T22:25:43.993Z,100787.72
2022-10-11T22:29:05.725Z,100791.28
2022-10-11T22:32:27.520Z,100786.13
2022-10-11T22:35:54.963Z,100793.13
2022-10-11T22:39:16.849Z,100799.25
2022-10-11T22:42:38.749Z,100794.13
2022-10-11T22:46:00.694Z,100804.66
2022-10-11T22:49:22.608Z,100801.28
2022-10-11T22:52:45.969Z,100799.63
2022-10-11T22:56:08.935Z,100805.78
2022-10-11T22:59:30.545Z,100801.56
2022-10-11T23:02:52.520Z,100797.31
2022-10-11T23:06:14.539Z,100802.56
2022-10-11T23:09:37.968Z,100813.94
2022-10-11T23:13:00.001Z,100810.63
2022-10-11T23:16:21.919Z,100817.63
2022-10-11T23:19:43.798Z,100822.91
2022-10-11T23:23:05.814Z,100823.94
2022-10-11T23:26:29.155Z,100830.94
2022-10-11T23:29:51.219Z,100829.44
2022-10-11T23:33:12.866Z,100836.38
2022-10-11T23:36:34.649Z,100838.19
2022-10-11T23:39:56.451Z,100836.59
2022-10-11T23:43:19.911Z,100836.69
2022-10-11T23:46:41.886Z,100841.09
2022-10-11T23:50:03.756Z,100848.94
2022-10-11T23:53:25.714Z,100847.25
2022-10-11T23:56:47.659Z,100848.16
